createdAt,value
2018-10-02T00:01:03.019Z,7.60
2018-10-02T00:06:08.955Z,7.50
2018-10-02T00:11:19.391Z,7.40
2018-10-02T00:16:24.601Z,7.40
2018-10-02T00:21:29.090Z,7.30
2018-10-02T00:26:34.318Z,7.20
2018-10-02T00:31:39.452Z,7.20
2018-10-02T00:36:44.488Z,7.00
2018-10-02T00:41:49.787Z,6.90
2018-10-02T00:46:55.110Z,6.80
2018-10-02T00:52:00.248Z,6.70
2018-10-02T00:57:05.712Z,6.60
2018-10-02T01:02:11.304Z,6.50
2018-10-02T01:07:16.528Z,6.50
2018-10-02T01:12:21.597Z,6.50
2018-10-02T01:17:26.310Z,6.50
2018-10-02T01:22:30.701Z,6.50
2018-10-02T01:27:35.881Z,6.50
2018-10-02T01:32:41.303Z,6.60
2018-10-02T01:37:46.459Z,6.70
2018-10-02T01:42:51.791Z,6.70
2018-10-02T01:47:56.168Z,6.70
2018-10-02T01:53:01.351Z,6.60
2018-10-02T01:58:06.017Z,6.60
2018-10-02T02:03:11.033Z,6.60
2018-10-02T02:08:15.761Z,6.50
2018-10-02T02:13:20.816Z,6.40
2018-10-02T02:18:25.931Z,6.20
2018-10-02T02:23:30.972Z,6.10
2018-10-02T02:28:35.515Z,6.00
2018-10-02T02:33:40.694Z,6.10
2018-10-02T02:38:46.908Z,6.10
2018-10-02T02:43:52.254Z,6.10
2018-10-02T02:49:02.115Z,6.20
2018-10-02T02:54:08.126Z,6.20
2018-10-02T02:59:13.716Z,6.20
2018-10-02T03:04:18.826Z,6.20
2018-10-02T03:09:23.269Z,6.20
2018-10-02T03:14:28.302Z,6.10
2018-10-02T03:19:33.683Z,6.10
2018-10-02T03:24:39.012Z,6.10
2018-10-02T03:29:43.438Z,5.90
2018-10-02T03:34:48.803Z,5.90
2018-10-02T03:39:54.278Z,6.00
2018-10-02T03:44:59.924Z,5.90
2018-10-02T03:50:04.464Z,5.90
2018-10-02T03:55:09.537Z,5.90
2018-10-02T04:00:14.481Z,5.80
2018-10-02T04:05:19.937Z,5.60
2018-10-02T04:10:24.431Z,5.60
2018-10-02T04:15:29.106Z,5.70
2018-10-02T04:20:37.013Z,5.70
2018-10-02T04:25:42.666Z,5.70
2018-10-02T04:30:46.957Z,5.70
2018-10-02T04:35:51.457Z,5.50
2018-10-02T04:40:55.868Z,5.60
2018-10-02T04:46:00.421Z,5.40
2018-10-02T04:51:04.818Z,5.30
2018-10-02T04:56:14.330Z,5.20
2018-10-02T05:01:19.006Z,5.30
2018-10-02T05:06:23.573Z,5.30
2018-10-02T05:11:28.232Z,5.30
2018-10-02T05:16:32.808Z,5.20
2018-10-02T05:21:38.216Z,5.30
2018-10-02T05:26:43.419Z,5.20
2018-10-02T05:31:47.715Z,5.10
2018-10-02T05:36:52.936Z,5.10
2018-10-02T05:41:57.295Z,5.10
2018-10-02T05:47:02.318Z,5.10
2018-10-02T05:52:07.071Z,5.00
2018-10-02T05:57:11.706Z,4.90
2018-10-02T06:02:16.598Z,5.00
2018-10-02T06:07:20.948Z,5.10
2018-10-02T06:12:25.467Z,5.20
2018-10-02T06:17:30.078Z,5.50
2018-10-02T06:22:34.418Z,5.90
2018-10-02T06:27:39.189Z,6.20
2018-10-02T06:32:43.891Z,6.50
2018-10-02T06:37:48.267Z,6.80
2018-10-02T06:42:53.136Z,6.90
2018-10-02T06:47:57.445Z,7.10
2018-10-02T06:53:01.928Z,7.20
2018-10-02T06:58:06.362Z,7.70
2018-10-02T07:03:10.940Z,8.10
2018-10-02T07:08:15.369Z,8.20
2018-10-02T07:13:19.924Z,8.50
2018-10-02T07:18:25.420Z,8.20
2018-10-02T07:23:29.905Z,8.30
2018-10-02T07:28:35.694Z,8.40
2018-10-02T07:33:40.797Z,8.70
2018-10-02T07:38:45.049Z,8.90
2018-10-02T07:43:49.635Z,8.90
2018-10-02T07:48:54.352Z,9.20
2018-10-02T07:53:59.817Z,9.30
2018-10-02T07:59:05.127Z,9.80
2018-10-02T08:04:09.915Z,9.90
2018-10-02T08:09:14.507Z,9.80
2018-10-02T08:14:19.154Z,9.70
2018-10-02T08:19:23.799Z,9.50
2018-10-02T08:24:29.496Z,9.50
2018-10-02T08:29:33.784Z,9.60
2018-10-02T08:34:38.165Z,9.90
2018-10-02T08:39:43.544Z,9.60
2018-10-02T08:44:49.253Z,9.60
2018-10-02T08:49:54.346Z,9.80
2018-10-02T08:54:59.170Z,10.10
2018-10-02T09:00:03.767Z,10.30
2018-10-02T09:05:08.447Z,10.20
2018-10-02T09:10:13.073Z,10.30
2018-10-02T09:15:18.030Z,10.00
2018-10-02T09:20:22.531Z,10.30
2018-10-02T09:25:27.743Z,10.70
2018-10-02T09:30:37.469Z,11.50
2018-10-02T09:35:48.057Z,11.00
2018-10-02T09:40:57.988Z,11.20
2018-10-02T09:46:02.774Z,11.00
2018-10-02T09:51:07.547Z,11.50
2018-10-02T09:56:11.998Z,11.60
2018-10-02T10:01:21.888Z,11.70
2018-10-02T10:06:26.522Z,12.00
2018-10-02T10:11:30.904Z,12.10
2018-10-02T10:16:35.238Z,12.80
2018-10-02T10:21:40.227Z,12.90
2018-10-02T10:26:44.811Z,12.80
2018-10-02T10:31:49.143Z,13.50
2018-10-02T10:36:53.587Z,13.60
2018-10-02T10:41:58.242Z,13.80
2018-10-02T10:47:02.893Z,14.10
2018-10-02T10:52:07.813Z,15.30
2018-10-02T10:57:12.262Z,15.80
2018-10-02T11:02:16.639Z,16.10
2018-10-02T11:07:21.347Z,19.60
2018-10-02T11:12:26.255Z,20.40
2018-10-02T11:17:31.337Z,20.20
2018-10-02T11:22:36.437Z,20.50
2018-10-02T11:27:42.892Z,19.90
2018-10-02T11:32:47.821Z,20.00
2018-10-02T11:37:52.203Z,20.90
2018-10-02T11:42:57.205Z,22.00
2018-10-02T11:48:01.803Z,19.80
2018-10-02T11:53:06.927Z,17.40
2018-10-02T11:58:11.751Z,17.90
2018-10-02T12:03:17.282Z,18.70
2018-10-02T12:08:21.814Z,17.10
2018-10-02T12:13:26.421Z,17.50
2018-10-02T12:18:31.019Z,17.90
2018-10-02T12:23:35.641Z,16.10
2018-10-02T12:28:39.992Z,15.50
2018-10-02T12:33:44.815Z,15.10
2018-10-02T12:38:49.356Z,14.80
2018-10-02T12:43:53.736Z,14.50
2018-10-02T12:48:58.038Z,14.50
2018-10-02T12:54:04.001Z,14.10
2018-10-02T12:59:08.827Z,14.40
2018-10-02T13:04:13.898Z,14.70
2018-10-02T13:09:18.476Z,14.70
2018-10-02T13:14:23.002Z,14.50
2018-10-02T13:19:27.518Z,14.70
2018-10-02T13:24:31.920Z,14.40
2018-10-02T13:29:36.389Z,14.50
2018-10-02T13:34:41.139Z,14.40
2018-10-02T13:39:45.435Z,14.80
2018-10-02T13:44:50.243Z,14.50
2018-10-02T13:49:54.734Z,14.30
2018-10-02T13:54:59.194Z,14.40
2018-10-02T14:00:03.599Z,14.30
2018-10-02T14:05:07.982Z,14.20
2018-10-02T14:10:12.255Z,14.00
2018-10-02T14:15:16.899Z,14.40
2018-10-02T14:20:21.462Z,15.10
2018-10-02T14:25:26.526Z,15.00
2018-10-02T14:30:31.523Z,14.70
2018-10-02T14:35:36.758Z,14.20
2018-10-02T14:40:41.111Z,13.70
2018-10-02T14:45:46.179Z,13.70
2018-10-02T14:50:50.945Z,13.60
2018-10-02T14:55:55.457Z,13.80
2018-10-02T15:01:00.041Z,13.60
2018-10-02T15:06:05.151Z,13.20
2018-10-02T15:11:10.374Z,13.20
2018-10-02T15:16:15.092Z,13.10
2018-10-02T15:21:20.176Z,13.20
2018-10-02T15:26:25.176Z,13.20
2018-10-02T15:31:29.780Z,13.10
2018-10-02T15:36:34.151Z,12.90
2018-10-02T15:41:39.535Z,12.80
2018-10-02T15:46:44.965Z,12.80
2018-10-02T15:51:50.289Z,12.90
2018-10-02T15:56:56.154Z,12.80
2018-10-02T16:02:01.380Z,12.80
2018-10-02T16:07:06.632Z,12.70
2018-10-02T16:12:11.432Z,12.60
2018-10-02T16:17:15.834Z,12.60
2018-10-02T16:22:20.639Z,12.50
2018-10-02T16:27:25.410Z,12.60
2018-10-02T16:32:29.865Z,12.60
2018-10-02T16:37:34.252Z,12.60
2018-10-02T16:42:38.908Z,12.50
2018-10-02T16:47:43.508Z,12.40
2018-10-02T16:52:48.059Z,12.20
2018-10-02T16:57:52.568Z,12.20
2018-10-02T17:02:56.966Z,12.20
2018-10-02T17:08:03.578Z,12.20
2018-10-02T17:13:08.055Z,12.20
2018-10-02T17:18:12.533Z,12.00
2018-10-02T17:23:17.665Z,12.00
2018-10-02T17:28:22.259Z,11.80
2018-10-02T17:33:26.419Z,11.80
2018-10-02T17:38:30.806Z,11.90
2018-10-02T17:43:35.619Z,11.90
2018-10-02T17:48:39.961Z,11.80
2018-10-02T17:53:44.794Z,11.80
2018-10-02T17:58:49.853Z,11.80
2018-10-02T18:03:55.869Z,11.80
2018-10-02T18:09:00.439Z,11.80
2018-10-02T18:14:04.940Z,11.70
2018-10-02T18:19:09.258Z,11.70
2018-10-02T18:24:14.497Z,11.70
2018-10-02T18:29:18.964Z,11.40
2018-10-02T18:34:23.584Z,10.90
2018-10-02T18:39:28.048Z,10.80
2018-10-02T18:44:33.531Z,10.80
2018-10-02T18:49:38.022Z,10.80
2018-10-02T18:54:42.540Z,10.90
2018-10-02T18:59:47.647Z,11.00
2018-10-02T19:04:52.125Z,11.00
2018-10-02T19:09:58.250Z,11.00
2018-10-02T19:15:02.728Z,11.10
2018-10-02T19:20:12.558Z,11.10
2018-10-02T19:25:22.302Z,11.10
2018-10-02T19:30:32.059Z,11.10
2018-10-02T19:35:36.539Z,11.10
2018-10-02T19:40:41.048Z,11.10
2018-10-02T19:45:51.047Z,11.10
2018-10-02T19:51:00.134Z,11.00
2018-10-02T19:56:04.608Z,11.00
2018-10-02T20:01:09.097Z,11.00
2018-10-02T20:06:13.613Z,11.10
2018-10-02T20:11:18.175Z,11.10
2018-10-02T20:16:22.511Z,11.10
2018-10-02T20:21:27.002Z,11.10
2018-10-02T20:26:31.976Z,11.10
2018-10-02T20:31:41.899Z,11.10
2018-10-02T20:36:46.429Z,11.10
2018-10-02T20:41:50.685Z,11.10
2018-10-02T20:46:55.073Z,11.10
2018-10-02T20:52:00.065Z,11.20
2018-10-02T20:57:04.762Z,11.20
2018-10-02T21:02:09.287Z,11.20
2018-10-02T21:07:14.457Z,11.10
2018-10-02T21:12:19.998Z,11.10
2018-10-02T21:17:24.952Z,10.90
2018-10-02T21:22:29.693Z,10.80
2018-10-02T21:27:34.843Z,10.70
2018-10-02T21:32:39.199Z,10.30
2018-10-02T21:37:43.665Z,10.10
2018-10-02T21:42:48.200Z,10.10
2018-10-02T21:47:53.034Z,10.20
2018-10-02T21:52:57.347Z,10.20
2018-10-02T21:58:01.721Z,10.00
2018-10-02T22:03:06.642Z,10.00
2018-10-02T22:08:11.157Z,10.10
2018-10-02T22:13:15.930Z,10.00
2018-10-02T22:18:20.448Z,10.10
2018-10-02T22:23:24.937Z,10.20
2018-10-02T22:28:29.182Z,10.20
2018-10-02T22:33:33.742Z,10.20
2018-10-02T22:38:38.221Z,10.10
2018-10-02T22:43:43.228Z,10.10
2018-10-02T22:48:47.633Z,10.10
2018-10-02T22:53:52.095Z,10.20
2018-10-02T22:58:56.509Z,10.20
2018-10-02T23:04:00.950Z,10.30
2018-10-02T23:09:09.425Z,10.50
2018-10-02T23:14:13.984Z,10.50
2018-10-02T23:19:18.982Z,10.60
2018-10-02T23:24:23.463Z,10.60
2018-10-02T23:29:28.184Z,10.60
2018-10-02T23:34:32.619Z,10.60
2018-10-02T23:39:37.109Z,10.60
2018-10-02T23:44:41.661Z,10.60
2018-10-02T23:49:46.099Z,10.60
2018-10-02T23:54:50.773Z,10.60
2018-10-02T23:59:55.464Z,10.70
